Time;durP1;ratioP1;P1;durP2;ratioP2;P2;SDS_P1;SDS_P2;PMS_P1;PMS_P2;Temp;Humidity;BMP_temperature;BMP_pressure;BME280_temperature;BME280_humidity;BME280_pressure;Samples;Min_cycle;Max_cycle;Signal;HPM_P1;HPM_P2
2022/05/05 00:00:54;;;;;;;10.65;1.42;;;;;;;;;;5066340;28;20070;-74
2022/05/05 00:03:24;;;;;;;13.98;1.77;;;;;;;;;;5065927;28;20523;-74
2022/05/05 00:05:54;;;;;;;13.05;1.42;;;;;;;;;;5065802;28;20053;-74
2022/05/05 00:08:24;;;;;;;10.68;1.23;;;;;;;;;;5066137;28;20044;-74
2022/05/05 00:16:31;;;;;;;11.80;1.60;;;;;;;;;;5065724;28;20503;-74
2022/05/05 00:19:01;;;;;;;11.13;1.48;;;;;;;;;;5065505;28;20048;-81
2022/05/05 00:21:31;;;;;;;13.60;1.50;;;;;;;;;;5067253;28;20570;-75
2022/05/05 00:24:01;;;;;;;17.00;1.85;;;;;;;;;;5069806;28;20055;-74
2022/05/05 00:26:31;;;;;;;16.88;2.53;;;;;;;;;;5069195;28;20064;-74
2022/05/05 00:29:02;;;;;;;14.80;2.08;;;;;;;;;;5069223;28;20044;-74
2022/05/05 00:31:33;;;;;;;15.90;1.83;;;;;;;;;;5069271;28;20052;-74
2022/05/05 00:34:03;;;;;;;15.10;1.97;;;;;;;;;;5069344;28;20044;-73
2022/05/05 00:36:33;;;;;;;19.33;1.75;;;;;;;;;;5069538;28;20048;-74
2022/05/05 00:39:04;;;;;;;14.38;1.80;;;;;;;;;;5067643;28;20052;-74
2022/05/05 00:41:44;;;;;;;14.10;1.75;;;;;;;;;;5069585;28;20051;-74
2022/05/05 00:44:15;;;;;;;13.20;2.00;;;;;;;;;;5068627;28;20047;-75
2022/05/05 00:46:50;;;;;;;12.95;1.85;;;;;;;;;;5068588;28;20052;-75
2022/05/05 00:49:22;;;;;;;20.17;2.67;;;;;;;;;;5069106;28;20497;-75
2022/05/05 00:51:52;;;;;;;15.03;2.27;;;;;;;;;;5069084;28;20056;-73
2022/05/05 00:54:22;;;;;;;12.35;2.20;;;;;;;;;;5068839;28;20055;-75
2022/05/05 00:56:52;;;;;;;6.13;1.70;;;;;;;;;;5068389;28;20048;-75
2022/05/05 00:59:23;;;;;;;12.13;2.00;;;;;;;;;;5068656;28;20052;-75
2022/05/05 01:01:52;;;;;;;15.90;2.38;;;;;;;;;;5068446;28;20048;-73
2022/05/05 01:04:23;;;;;;;16.13;2.08;;;;;;;;;;5069142;28;20040;-74
2022/05/05 01:06:52;;;;;;;19.75;2.58;;;;;;;;;;5050586;28;20389;-74
2022/05/05 01:09:22;;;;;;;16.30;2.10;;;;;;;;;;5067799;28;20083;-74
2022/05/05 01:11:52;;;;;;;23.40;2.45;;;;;;;;;;5067115;28;20048;-74
2022/05/05 01:14:22;;;;;;;24.58;2.03;;;;;;;;;;5066129;28;20045;-74
2022/05/05 01:16:52;;;;;;;27.05;2.55;;;;;;;;;;5064953;28;20060;-73
2022/05/05 01:19:22;;;;;;;21.15;2.25;;;;;;;;;;5067554;28;20056;-73
2022/05/05 01:21:57;;;;;;;17.65;2.22;;;;;;;;;;5065047;28;20048;-73
2022/05/05 01:30:04;;;;;;;14.27;1.92;;;;;;;;;;5068191;28;20040;-75
2022/05/05 01:32:35;;;;;;;22.88;2.40;;;;;;;;;;5068342;28;20048;-75
2022/05/05 01:35:05;;;;;;;21.17;2.40;;;;;;;;;;5068273;28;20036;-73
2022/05/05 01:37:35;;;;;;;24.25;2.53;;;;;;;;;;5068243;28;20072;-74
2022/05/05 01:40:06;;;;;;;26.45;2.88;;;;;;;;;;5067901;28;20057;-73
2022/05/05 01:42:36;;;;;;;28.20;2.23;;;;;;;;;;5067689;28;20053;-74
2022/05/05 01:45:06;;;;;;;36.03;2.80;;;;;;;;;;5068318;28;20048;-74
2022/05/05 01:47:37;;;;;;;14.43;2.15;;;;;;;;;;5067858;28;20507;-75
2022/05/05 01:50:07;;;;;;;21.10;2.40;;;;;;;;;;5067719;28;20048;-74
2022/05/05 01:52:37;;;;;;;27.48;2.53;;;;;;;;;;5067004;28;20049;-74
2022/05/05 01:55:07;;;;;;;21.17;2.70;;;;;;;;;;5067688;28;20040;-73
2022/05/05 01:57:37;;;;;;;19.63;2.25;;;;;;;;;;5067644;28;20047;-74
2022/05/05 02:00:08;;;;;;;28.30;2.60;;;;;;;;;;5068151;28;20431;-73
2022/05/05 02:02:44;;;;;;;32.45;2.88;;;;;;;;;;5067722;28;20597;-74
2022/05/05 02:05:16;;;;;;;22.35;2.95;;;;;;;;;;5067971;28;20518;-73
2022/05/05 02:07:47;;;;;;;27.88;2.22;;;;;;;;;;5067246;28;20048;-74
2022/05/05 02:10:20;;;;;;;32.35;2.28;;;;;;;;;;5067419;28;20435;-74
2022/05/05 02:12:53;;;;;;;29.52;2.22;;;;;;;;;;5067423;28;20068;-74
2022/05/05 02:15:23;;;;;;;21.02;2.42;;;;;;;;;;5067401;28;20415;-74
2022/05/05 02:17:53;;;;;;;24.00;2.72;;;;;;;;;;5067391;28;20495;-74
2022/05/05 02:20:23;;;;;;;22.05;2.20;;;;;;;;;;5067876;28;20044;-75
2022/05/05 02:22:53;;;;;;;23.30;3.10;;;;;;;;;;5067076;28;20051;-74
2022/05/05 02:25:23;;;;;;;27.58;3.08;;;;;;;;;;5067138;28;20678;-74
2022/05/05 02:27:54;;;;;;;28.27;3.20;;;;;;;;;;5067175;28;20087;-74
2022/05/05 02:30:25;;;;;;;38.72;3.70;;;;;;;;;;5066851;28;20052;-74
2022/05/05 02:32:56;;;;;;;18.40;2.63;;;;;;;;;;5067664;28;20051;-75
2022/05/05 02:35:25;;;;;;;46.45;3.90;;;;;;;;;;5067538;28;20052;-74
2022/05/05 02:40:44;;;;;;;35.20;5.18;;;;;;;;;;5066271;28;20045;-75
2022/05/05 02:43:15;;;;;;;39.35;5.63;;;;;;;;;;5066450;28;20036;-74
2022/05/05 02:45:45;;;;;;;23.98;3.72;;;;;;;;;;5067293;28;20052;-74
2022/05/05 02:48:16;;;;;;;33.72;3.53;;;;;;;;;;5067132;28;20051;-75
2022/05/05 02:50:46;;;;;;;22.58;2.88;;;;;;;;;;5067312;28;20033;-75
2022/05/05 02:56:06;;;;;;;24.45;3.08;;;;;;;;;;5066485;28;20094;-74
2022/05/05 02:58:35;;;;;;;22.80;2.93;;;;;;;;;;5065513;28;20053;-78
2022/05/05 03:01:05;;;;;;;39.72;3.80;;;;;;;;;;5066499;28;20040;-74
2022/05/05 03:03:36;;;;;;;31.45;4.20;;;;;;;;;;5066718;28;20040;-74
2022/05/05 03:06:06;;;;;;;37.42;5.32;;;;;;;;;;5064744;28;20059;-73
2022/05/05 03:08:36;;;;;;;38.75;3.55;;;;;;;;;;5066716;28;20392;-73
2022/05/05 03:11:06;;;;;;;17.48;2.80;;;;;;;;;;5066349;28;20052;-75
2022/05/05 03:13:36;;;;;;;27.85;2.55;;;;;;;;;;5066463;28;20392;-75
2022/05/05 03:16:06;;;;;;;23.77;2.22;;;;;;;;;;5066988;28;20085;-74
2022/05/05 03:18:40;;;;;;;17.92;2.15;;;;;;;;;;5066017;28;20040;-74
2022/05/05 03:21:10;;;;;;;20.02;2.58;;;;;;;;;;5066423;28;20048;-73
2022/05/05 03:23:41;;;;;;;22.92;2.17;;;;;;;;;;5066492;28;20063;-75
2022/05/05 03:26:12;;;;;;;22.73;1.88;;;;;;;;;;5066060;28;20048;-73
2022/05/05 03:28:43;;;;;;;28.58;2.50;;;;;;;;;;5065795;28;20067;-74
2022/05/05 03:31:12;;;;;;;23.97;3.10;;;;;;;;;;5066445;28;20049;-73
2022/05/05 03:33:43;;;;;;;26.05;2.33;;;;;;;;;;5066116;28;20776;-74
2022/05/05 03:36:12;;;;;;;27.25;2.05;;;;;;;;;;5066286;28;20523;-73
2022/05/05 03:38:42;;;;;;;40.47;2.88;;;;;;;;;;5066546;28;20049;-74
2022/05/05 03:41:12;;;;;;;20.85;1.85;;;;;;;;;;5066258;28;20040;-75
2022/05/05 03:43:42;;;;;;;17.10;1.92;;;;;;;;;;5066610;28;20048;-73
2022/05/05 03:46:12;;;;;;;20.92;1.67;;;;;;;;;;5064313;28;20056;-75
2022/05/05 03:48:42;;;;;;;24.30;2.20;;;;;;;;;;5066403;28;20044;-75
2022/05/05 03:51:14;;;;;;;54.47;3.22;;;;;;;;;;5065951;28;20047;-75
2022/05/05 03:53:44;;;;;;;12.98;1.20;;;;;;;;;;5065481;28;20049;-74
2022/05/05 03:56:14;;;;;;;12.80;1.00;;;;;;;;;;5069787;28;20047;-75
2022/05/05 03:58:44;;;;;;;31.30;1.40;;;;;;;;;;5070255;28;20051;-74
2022/05/05 04:01:14;;;;;;;39.40;1.95;;;;;;;;;;5070093;28;20418;-75
2022/05/05 04:03:44;;;;;;;11.40;1.08;;;;;;;;;;5069601;28;20060;-74
2022/05/05 04:06:16;;;;;;;18.05;1.92;;;;;;;;;;5069571;28;20048;-75
2022/05/05 04:08:48;;;;;;;17.42;1.15;;;;;;;;;;5070506;28;20534;-74
2022/05/05 04:11:18;;;;;;;36.30;2.33;;;;;;;;;;5070233;28;20037;-74
2022/05/05 04:13:48;;;;;;;24.83;2.28;;;;;;;;;;5069824;28;20041;-73
2022/05/05 04:16:18;;;;;;;34.03;2.10;;;;;;;;;;5068015;28;20045;-74
2022/05/05 04:18:48;;;;;;;19.30;1.67;;;;;;;;;;5069631;28;20051;-74
2022/05/05 04:21:18;;;;;;;29.42;2.30;;;;;;;;;;5069735;28;20048;-80
2022/05/05 04:23:54;;;;;;;23.48;2.50;;;;;;;;;;5069493;28;20531;-74
2022/05/05 04:26:24;;;;;;;;;;;;;;;;;;5070179;28;20052;-74
2022/05/05 04:28:56;;;;;;;27.25;2.92;;;;;;;;;;5069484;28;20268;-74
2022/05/05 04:31:31;;;;;;;23.13;3.40;;;;;;;;;;5069401;28;20044;-74
2022/05/05 04:34:03;;;;;;;17.50;1.77;;;;;;;;;;5068972;28;20052;-74
2022/05/05 04:36:35;;;;;;;33.38;2.60;;;;;;;;;;5070055;28;20926;-75
2022/05/05 04:39:06;;;;;;;35.17;2.85;;;;;;;;;;5069512;28;20075;-73
2022/05/05 04:41:36;;;;;;;;;;;;;;;;;;5069420;28;20044;-75
2022/05/05 04:44:06;;;;;;;67.13;2.70;;;;;;;;;;5069473;28;19924;-74
2022/05/05 04:46:36;;;;;;;60.53;3.10;;;;;;;;;;5069176;28;20052;-74
2022/05/05 04:49:08;;;;;;;26.85;1.95;;;;;;;;;;5069172;28;20419;-75
2022/05/05 04:51:38;;;;;;;39.72;2.17;;;;;;;;;;5069089;28;20040;-75
2022/05/05 04:54:08;;;;;;;19.20;1.40;;;;;;;;;;5068755;28;20056;-75
2022/05/05 04:56:38;;;;;;;9.75;1.55;;;;;;;;;;5069316;28;20083;-75
2022/05/05 04:59:08;;;;;;;17.83;1.85;;;;;;;;;;5069326;28;20044;-75
2022/05/05 05:01:38;;;;;;;16.33;1.80;;;;;;;;;;5069346;28;20052;-74
2022/05/05 05:04:08;;;;;;;16.93;1.80;;;;;;;;;;5069149;28;21087;-75
2022/05/05 05:06:38;;;;;;;28.27;1.92;;;;;;;;;;5067854;28;20294;-75
2022/05/05 05:09:08;;;;;;;24.23;1.65;;;;;;;;;;5069300;28;20052;-75
2022/05/05 05:11:38;;;;;;;100.20;3.20;;;;;;;;;;5069026;28;20048;-74
2022/05/05 05:14:08;;;;;;;18.10;1.08;;;;;;;;;;5067698;28;20048;-75
2022/05/05 05:16:37;;;;;;;21.77;1.05;;;;;;;;;;5068712;28;20419;-74
2022/05/05 05:19:10;;;;;;;56.75;2.45;;;;;;;;;;5068549;28;20048;-75
2022/05/05 05:21:46;;;;;;;83.43;2.53;;;;;;;;;;5067751;28;20071;-75
2022/05/05 05:24:18;;;;;;;63.60;2.45;;;;;;;;;;5068680;28;20399;-74
2022/05/05 05:26:48;;;;;;;38.63;1.52;;;;;;;;;;5068590;28;20044;-74
2022/05/05 05:29:17;;;;;;;40.55;2.22;;;;;;;;;;5068988;28;20685;-75
2022/05/05 05:31:47;;;;;;;28.88;1.40;;;;;;;;;;5068149;28;20514;-75
2022/05/05 05:34:19;;;;;;;43.53;2.53;;;;;;;;;;5068478;28;20048;-74
2022/05/05 05:36:49;;;;;;;12.90;0.90;;;;;;;;;;5068461;28;20063;-74
2022/05/05 05:39:20;;;;;;;32.70;1.88;;;;;;;;;;5068305;28;20048;-75
2022/05/05 05:41:49;;;;;;;22.05;2.13;;;;;;;;;;5068163;28;20559;-76
2022/05/05 05:44:19;;;;;;;12.68;1.58;;;;;;;;;;5067126;28;20071;-73
2022/05/05 05:46:49;;;;;;;20.15;1.77;;;;;;;;;;5068349;28;20055;-74
2022/05/05 05:49:19;;;;;;;34.75;2.38;;;;;;;;;;5067984;28;20044;-75
2022/05/05 05:51:49;;;;;;;34.92;2.53;;;;;;;;;;5067907;28;20048;-75
2022/05/05 05:54:19;;;;;;;30.55;2.17;;;;;;;;;;5067750;28;20044;-75
2022/05/05 05:56:50;;;;;;;27.73;1.98;;;;;;;;;;5068173;28;20044;-74
2022/05/05 05:59:20;;;;;;;18.00;1.98;;;;;;;;;;5068441;28;20059;-75
2022/05/05 06:04:38;;;;;;;12.93;1.48;;;;;;;;;;5066880;28;20047;-74
2022/05/05 06:07:08;;;;;;;12.38;1.50;;;;;;;;;;5067184;28;20530;-74
2022/05/05 06:09:38;;;;;;;23.48;1.73;;;;;;;;;;5067997;28;20048;-74
2022/05/05 06:12:09;;;;;;;20.83;1.60;;;;;;;;;;5067658;28;20070;-73
2022/05/05 06:14:38;;;;;;;;;;;;;;;;;;5067717;28;20518;-75
2022/05/05 06:17:08;;;;;;;15.43;1.00;;;;;;;;;;5068286;28;20057;-75
2022/05/05 06:19:38;;;;;;;20.52;1.98;;;;;;;;;;5066378;28;20044;-75
2022/05/05 06:22:08;;;;;;;14.75;1.33;;;;;;;;;;5067075;28;20063;-75
2022/05/05 06:24:38;;;;;;;19.65;1.83;;;;;;;;;;5068132;28;20045;-74
2022/05/05 06:27:08;;;;;;;15.25;1.58;;;;;;;;;;5067004;28;20056;-74
2022/05/05 06:29:38;;;;;;;14.02;1.50;;;;;;;;;;5067710;28;20058;-74
2022/05/05 06:32:08;;;;;;;12.10;1.65;;;;;;;;;;5066853;28;20044;-74
2022/05/05 06:34:38;;;;;;;19.63;2.13;;;;;;;;;;5067244;28;20055;-75
2022/05/05 06:37:08;;;;;;;27.48;2.53;;;;;;;;;;5067028;28;20523;-74
2022/05/05 06:39:38;;;;;;;25.35;1.67;;;;;;;;;;5067134;28;20049;-74
2022/05/05 06:42:09;;;;;;;39.00;2.40;;;;;;;;;;5067129;28;20491;-75
2022/05/05 06:44:39;;;;;;;14.27;2.03;;;;;;;;;;5066441;28;20523;-74
2022/05/05 06:47:10;;;;;;;24.77;2.35;;;;;;;;;;5067908;28;20044;-75
2022/05/05 06:49:41;;;;;;;23.15;1.80;;;;;;;;;;5067551;28;20048;-74
2022/05/05 06:52:11;;;;;;;23.00;2.05;;;;;;;;;;5066814;28;20048;-75
2022/05/05 06:55:01;;;;;;;13.27;1.55;;;;;;;;;;5066743;28;20044;-74
2022/05/05 06:57:32;;;;;;;25.67;2.05;;;;;;;;;;5066848;28;20664;-75
2022/05/05 07:00:04;;;;;;;19.02;1.95;;;;;;;;;;5066577;28;20499;-74
2022/05/05 07:02:34;;;;;;;23.02;2.33;;;;;;;;;;5066886;28;20605;-75
2022/05/05 07:07:53;;;;;;;25.30;2.30;;;;;;;;;;5067338;28;20399;-74
2022/05/05 07:13:12;;;;;;;16.52;1.48;;;;;;;;;;5066258;28;20044;-75
2022/05/05 07:15:42;;;;;;;9.65;1.38;;;;;;;;;;5066062;28;20052;-74
2022/05/05 07:18:12;;;;;;;6.50;1.02;;;;;;;;;;5064775;28;20522;-75
2022/05/05 07:20:43;;;;;;;27.73;1.58;;;;;;;;;;5066246;28;20048;-74
2022/05/05 07:23:14;;;;;;;13.32;1.10;;;;;;;;;;5066911;28;20063;-74
2022/05/05 07:25:44;;;;;;;9.88;1.13;;;;;;;;;;5065175;28;20060;-75
2022/05/05 07:28:15;;;;;;;14.90;1.33;;;;;;;;;;5066173;28;20511;-75
2022/05/05 07:30:45;;;;;;;18.17;1.70;;;;;;;;;;5066642;28;20044;-75
2022/05/05 07:33:15;;;;;;;14.20;1.20;;;;;;;;;;5066443;28;20044;-75
2022/05/05 07:35:47;;;;;;;15.10;1.23;;;;;;;;;;5066211;28;20052;-74
2022/05/05 07:38:17;;;;;;;5.28;1.13;;;;;;;;;;5067016;28;20055;-75
2022/05/05 07:40:49;;;;;;;8.45;1.10;;;;;;;;;;5066315;28;21152;-75
2022/05/05 07:43:20;;;;;;;8.50;1.23;;;;;;;;;;5066202;28;20053;-74
2022/05/05 07:45:49;;;;;;;16.23;1.35;;;;;;;;;;5066136;28;20048;-73
2022/05/05 07:48:20;;;;;;;8.88;1.30;;;;;;;;;;5065786;28;20076;-74
2022/05/05 07:50:50;;;;;;;13.03;1.60;;;;;;;;;;5066278;28;20052;-72
2022/05/05 07:53:20;;;;;;;27.27;2.08;;;;;;;;;;5066118;28;20045;-73
2022/05/05 07:55:50;;;;;;;27.70;2.35;;;;;;;;;;5065831;28;20427;-73
2022/05/05 07:58:19;;;;;;;8.23;1.10;;;;;;;;;;5066277;28;20423;-74
2022/05/05 08:00:49;;;;;;;13.30;1.38;;;;;;;;;;5066215;28;20419;-74
2022/05/05 08:03:19;;;;;;;14.65;1.40;;;;;;;;;;5066872;28;20055;-74
2022/05/05 08:05:49;;;;;;;13.68;1.63;;;;;;;;;;5066057;28;20055;-72
2022/05/05 08:08:19;;;;;;;24.30;1.88;;;;;;;;;;5066505;28;20044;-73
2022/05/05 08:10:53;;;;;;;14.73;1.80;;;;;;;;;;5064721;28;20487;-73
2022/05/05 08:13:23;;;;;;;14.80;1.58;;;;;;;;;;5066119;28;20514;-73
2022/05/05 08:15:53;;;;;;;13.05;1.30;;;;;;;;;;5065966;28;20045;-72
2022/05/05 08:18:23;;;;;;;15.00;1.48;;;;;;;;;;5065691;28;20052;-73
2022/05/05 08:20:53;;;;;;;11.85;1.50;;;;;;;;;;5065561;28;20513;-74
2022/05/05 08:23:23;;;;;;;17.42;1.52;;;;;;;;;;5065988;28;20040;-72
2022/05/05 08:28:41;;;;;;;17.38;1.30;;;;;;;;;;5065190;28;20115;-72
2022/05/05 08:31:12;;;;;;;14.93;1.95;;;;;;;;;;5065662;28;20041;-74
2022/05/05 08:33:43;;;;;;;23.50;1.52;;;;;;;;;;5065745;28;20053;-74
2022/05/05 08:36:14;;;;;;;23.90;1.95;;;;;;;;;;5064616;28;20059;-73
2022/05/05 08:38:46;;;;;;;9.60;1.50;;;;;;;;;;5065349;28;20063;-74
2022/05/05 08:41:16;;;;;;;14.40;1.50;;;;;;;;;;5065440;28;20048;-74
2022/05/05 08:43:45;;;;;;;8.85;1.27;;;;;;;;;;5069348;28;20427;-74
2022/05/05 08:46:33;;;;;;;24.63;2.00;;;;;;;;;;5069512;28;20570;-74
2022/05/05 08:49:06;;;;;;;16.48;1.70;;;;;;;;;;5069272;28;20048;-72
2022/05/05 08:51:49;;;;;;;23.35;1.98;;;;;;;;;;5069046;28;20052;-73
2022/05/05 08:54:25;;;;;;;13.82;1.40;;;;;;;;;;5069367;28;20388;-74
2022/05/05 08:56:55;;;;;;;11.65;1.30;;;;;;;;;;5069424;28;20407;-74
2022/05/05 08:59:25;;;;;;;10.80;1.10;;;;;;;;;;5070228;28;20071;-74
2022/05/05 09:01:55;;;;;;;4.93;0.93;;;;;;;;;;5068753;28;20056;-73
2022/05/05 09:04:26;;;;;;;27.80;1.58;;;;;;;;;;5068991;28;20055;-74
2022/05/05 09:06:55;;;;;;;10.80;1.10;;;;;;;;;;5069007;28;20492;-74
2022/05/05 09:09:29;;;;;;;15.18;1.30;;;;;;;;;;5068606;28;20048;-73
2022/05/05 09:12:05;;;;;;;10.15;1.00;;;;;;;;;;5069247;28;20044;-73
2022/05/05 09:14:44;;;;;;;21.88;1.67;;;;;;;;;;5068999;28;20048;-74
2022/05/05 09:17:17;;;;;;;15.98;1.42;;;;;;;;;;5068200;28;20056;-74
2022/05/05 09:19:49;;;;;;;14.00;1.33;;;;;;;;;;5068770;28;20570;-72
2022/05/05 09:22:22;;;;;;;12.35;1.10;;;;;;;;;;5069100;28;20041;-74
2022/05/05 09:24:56;;;;;;;19.70;1.65;;;;;;;;;;5068551;28;20060;-73
2022/05/05 09:27:28;;;;;;;10.90;1.30;;;;;;;;;;5068525;28;20051;-74
2022/05/05 09:30:02;;;;;;;9.20;1.58;;;;;;;;;;5068731;28;20499;-75
2022/05/05 09:32:40;;;;;;;15.00;1.25;;;;;;;;;;5068515;28;20051;-74
2022/05/05 09:35:10;;;;;;;17.40;1.10;;;;;;;;;;5067831;28;20561;-73
2022/05/05 09:37:47;;;;;;;12.02;1.08;;;;;;;;;;5067774;28;20049;-74
2022/05/05 09:40:20;;;;;;;15.05;1.27;;;;;;;;;;5067741;28;20411;-74
2022/05/05 09:42:52;;;;;;;13.68;1.65;;;;;;;;;;5067628;28;20053;-73
2022/05/05 09:45:26;;;;;;;9.13;1.20;;;;;;;;;;5067401;28;20057;-74
2022/05/05 09:47:58;;;;;;;8.75;2.00;;;;;;;;;;5067766;28;20049;-75
2022/05/05 09:50:30;;;;;;;21.27;1.40;;;;;;;;;;5067998;28;20053;-74
2022/05/05 09:58:42;;;;;;;14.82;2.75;;;;;;;;;;5067120;28;20500;-75
2022/05/05 10:01:21;;;;;;;17.08;2.90;;;;;;;;;;5065850;28;20044;-75
2022/05/05 10:04:02;;;;;;;15.35;2.90;;;;;;;;;;5067376;28;20044;-74
2022/05/05 10:06:35;;;;;;;;;;;;;;;;;;5068296;28;20049;-74
2022/05/05 10:09:07;;;;;;;19.88;3.80;;;;;;;;;;5066825;28;20307;-75
2022/05/05 10:11:38;;;;;;;23.58;3.63;;;;;;;;;;5066516;28;20649;-73
2022/05/05 10:14:12;;;;;;;14.98;2.53;;;;;;;;;;5067135;28;20044;-73
2022/05/05 10:16:43;;;;;;;11.85;2.13;;;;;;;;;;5066829;28;20530;-75
2022/05/05 10:19:15;;;;;;;18.08;2.95;;;;;;;;;;5066021;28;20492;-73
2022/05/05 10:22:03;;;;;;;19.63;1.90;;;;;;;;;;5067281;28;20052;-76
2022/05/05 10:24:58;;;;;;;22.42;1.83;;;;;;;;;;5067766;28;20048;-76
2022/05/05 10:27:28;;;;;;;13.90;1.60;;;;;;;;;;5066946;28;20061;-74
2022/05/05 10:30:01;;;;;;;40.50;2.20;;;;;;;;;;5067320;28;20056;-71
2022/05/05 10:32:34;;;;;;;16.08;1.73;;;;;;;;;;5066430;28;20044;-71
2022/05/05 10:35:13;;;;;;;6.18;1.40;;;;;;;;;;5066595;28;20051;-71
2022/05/05 10:37:43;;;;;;;9.77;1.90;;;;;;;;;;5061624;28;20044;-72
2022/05/05 10:40:13;;;;;;;4.32;0.98;;;;;;;;;;5063402;28;20048;-72
2022/05/05 10:42:45;;;;;;;4.80;1.10;;;;;;;;;;5061802;28;20855;-72
2022/05/05 10:45:20;;;;;;;6.32;1.15;;;;;;;;;;5066535;28;20044;-75
2022/05/05 10:47:58;;;;;;;4.40;0.88;;;;;;;;;;5066669;28;20049;-75
2022/05/05 10:50:30;;;;;;;2.20;0.70;;;;;;;;;;5066615;28;20044;-74
2022/05/05 10:53:02;;;;;;;3.50;0.80;;;;;;;;;;5065875;28;20071;-74
2022/05/05 10:55:41;;;;;;;1.88;0.93;;;;;;;;;;5065623;28;20041;-74
2022/05/05 10:58:57;;;;;;;7.13;1.50;;;;;;;;;;5065617;28;20522;-75
2022/05/05 11:01:33;;;;;;;11.98;1.80;;;;;;;;;;5065723;28;20067;-75
2022/05/05 11:04:15;;;;;;;11.18;2.42;;;;;;;;;;5064808;28;20411;-75
2022/05/05 11:07:09;;;;;;;8.73;2.85;;;;;;;;;;5066109;28;20041;-75
2022/05/05 11:09:40;;;;;;;9.82;3.63;;;;;;;;;;5066527;28;20044;-76
2022/05/05 11:12:21;;;;;;;12.15;3.38;;;;;;;;;;5066994;28;20052;-75
2022/05/05 11:23:50;;;;;;;14.77;2.92;;;;;;;;;;5066011;28;20051;-75
2022/05/05 11:26:21;;;;;;;8.27;2.90;;;;;;;;;;5066509;28;20610;-75
2022/05/05 11:28:53;;;;;;;11.73;5.22;;;;;;;;;;5066345;28;20044;-75
2022/05/05 11:31:24;;;;;;;12.40;3.75;;;;;;;;;;5066594;28;20053;-73
2022/05/05 11:34:00;;;;;;;11.05;3.03;;;;;;;;;;5066261;28;20070;-74
2022/05/05 11:36:33;;;;;;;11.93;4.57;;;;;;;;;;5066074;28;20047;-74
2022/05/05 11:39:03;;;;;;;13.15;4.60;;;;;;;;;;5066147;28;20049;-75
2022/05/05 11:41:35;;;;;;;6.82;3.55;;;;;;;;;;5065620;28;20052;-74
2022/05/05 11:44:15;;;;;;;15.45;3.85;;;;;;;;;;5066673;28;20055;-78
2022/05/05 11:46:45;;;;;;;12.93;4.47;;;;;;;;;;5065401;28;20049;-76
2022/05/05 11:49:16;;;;;;;12.70;4.30;;;;;;;;;;5065615;28;20048;-80
2022/05/05 11:51:46;;;;;;;12.23;4.20;;;;;;;;;;5066068;28;20048;-75
2022/05/05 11:54:38;;;;;;;13.73;3.33;;;;;;;;;;5064910;28;20068;-75
2022/05/05 11:57:09;;;;;;;9.55;3.05;;;;;;;;;;5065478;28;20060;-74
2022/05/05 12:02:31;;;;;;;13.82;3.88;;;;;;;;;;5066159;28;20044;-75
2022/05/05 12:05:01;;;;;;;13.77;3.00;;;;;;;;;;5066020;28;20064;-75
2022/05/05 12:07:34;;;;;;;8.27;3.13;;;;;;;;;;5066228;28;20520;-75
2022/05/05 12:10:07;;;;;;;11.00;3.13;;;;;;;;;;5066402;28;20759;-74
2022/05/05 12:12:37;;;;;;;13.32;4.25;;;;;;;;;;5066167;28;20059;-75
2022/05/05 12:15:08;;;;;;;9.85;2.28;;;;;;;;;;5066172;28;20056;-74
2022/05/05 12:17:42;;;;;;;7.50;1.38;;;;;;;;;;5067849;28;20063;-76
2022/05/05 12:20:15;;;;;;;10.32;1.83;;;;;;;;;;5069185;28;20044;-75
2022/05/05 12:22:54;;;;;;;14.23;1.75;;;;;;;;;;5069765;28;20052;-75
2022/05/05 12:25:26;;;;;;;9.57;2.13;;;;;;;;;;5069900;28;20431;-78
2022/05/05 12:27:59;;;;;;;6.00;1.75;;;;;;;;;;5069657;28;20053;-75
2022/05/05 12:30:40;;;;;;;6.00;1.60;;;;;;;;;;5069201;28;20442;-75
2022/05/05 12:33:11;;;;;;;;;;;;;;;;;;5070032;28;20045;-75
2022/05/05 12:35:43;;;;;;;3.05;1.17;;;;;;;;;;5069937;28;19924;-75
2022/05/05 12:38:16;;;;;;;7.57;1.55;;;;;;;;;;5069854;28;20059;-75
2022/05/05 12:41:05;;;;;;;5.93;1.60;;;;;;;;;;5069589;28;20052;-76
2022/05/05 12:43:36;;;;;;;5.45;1.35;;;;;;;;;;5068864;28;20044;-75
2022/05/05 12:46:06;;;;;;;7.65;2.45;;;;;;;;;;5069325;28;20538;-75
2022/05/05 12:48:40;;;;;;;9.43;1.92;;;;;;;;;;5069218;28;21100;-75
2022/05/05 12:51:17;;;;;;;4.65;1.42;;;;;;;;;;5068220;28;20059;-75
2022/05/05 12:59:46;;;;;;;5.00;1.65;;;;;;;;;;5068159;28;20527;-74
2022/05/05 13:02:17;;;;;;;4.32;1.52;;;;;;;;;;5069342;28;20048;-76
2022/05/05 13:04:48;;;;;;;5.85;1.35;;;;;;;;;;5069294;28;20044;-75
2022/05/05 13:07:19;;;;;;;7.32;1.10;;;;;;;;;;5069555;28;20045;-74
2022/05/05 13:09:48;;;;;;;5.93;1.63;;;;;;;;;;5069028;28;20078;-75
2022/05/05 13:12:19;;;;;;;6.00;1.25;;;;;;;;;;5067454;28;20040;-75
2022/05/05 13:14:49;;;;;;;4.53;1.20;;;;;;;;;;5068667;28;20040;-75
2022/05/05 13:17:19;;;;;;;4.93;1.30;;;;;;;;;;5068763;28;20048;-75
2022/05/05 13:19:49;;;;;;;4.03;1.05;;;;;;;;;;5068520;28;20056;-74
2022/05/05 13:22:19;;;;;;;6.18;1.30;;;;;;;;;;5067109;28;20053;-76
2022/05/05 13:24:53;;;;;;;5.30;1.33;;;;;;;;;;5068458;28;20500;-78
2022/05/05 13:27:23;;;;;;;11.07;1.58;;;;;;;;;;5067389;28;20056;-74
2022/05/05 13:29:54;;;;;;;5.20;1.15;;;;;;;;;;5068752;28;20049;-75
2022/05/05 13:32:25;;;;;;;10.60;1.60;;;;;;;;;;5068087;28;20048;-74
2022/05/05 13:34:55;;;;;;;5.43;1.20;;;;;;;;;;5068054;28;20041;-75
2022/05/05 13:37:24;;;;;;;7.15;1.55;;;;;;;;;;5067904;28;20071;-74
2022/05/05 13:39:54;;;;;;;6.80;1.88;;;;;;;;;;5068056;28;20051;-74
2022/05/05 13:42:25;;;;;;;7.30;1.20;;;;;;;;;;5067924;28;20044;-75
2022/05/05 13:44:55;;;;;;;7.20;1.42;;;;;;;;;;5067933;28;20049;-75
2022/05/05 13:47:25;;;;;;;6.75;1.08;;;;;;;;;;5067422;28;20059;-75
2022/05/05 13:49:55;;;;;;;4.90;1.27;;;;;;;;;;5067842;28;20055;-75
2022/05/05 13:52:26;;;;;;;8.43;1.73;;;;;;;;;;5065734;28;20045;-75
2022/05/05 13:54:56;;;;;;;7.13;1.40;;;;;;;;;;5066830;28;20051;-75
2022/05/05 13:57:27;;;;;;;5.82;1.15;;;;;;;;;;5067859;28;20520;-74
2022/05/05 14:00:01;;;;;;;4.10;0.98;;;;;;;;;;5066557;28;20055;-75
2022/05/05 14:02:42;;;;;;;12.85;1.38;;;;;;;;;;5067234;28;20508;-74
2022/05/05 14:05:12;;;;;;;13.50;1.50;;;;;;;;;;5067061;28;20055;-74
2022/05/05 14:13:19;;;;;;;9.93;1.40;;;;;;;;;;5067136;28;20111;-75
2022/05/05 14:15:49;;;;;;;5.03;1.05;;;;;;;;;;5066693;28;20056;-75
2022/05/05 14:18:20;;;;;;;9.32;1.13;;;;;;;;;;5067394;28;20056;-75
2022/05/05 14:20:51;;;;;;;9.88;1.20;;;;;;;;;;5066708;28;20666;-75
2022/05/05 14:23:21;;;;;;;7.05;1.13;;;;;;;;;;5066678;28;20063;-75
2022/05/05 14:25:51;;;;;;;4.22;1.30;;;;;;;;;;5066563;28;20057;-74
2022/05/05 14:28:21;;;;;;;5.40;1.17;;;;;;;;;;5067471;28;20495;-75
2022/05/05 14:30:54;;;;;;;6.97;1.10;;;;;;;;;;5067196;28;20052;-75
2022/05/05 14:33:24;;;;;;;4.53;0.90;;;;;;;;;;5066604;28;20052;-75
2022/05/05 14:35:57;;;;;;;4.50;1.23;;;;;;;;;;5065124;28;20076;-75
2022/05/05 14:38:27;;;;;;;9.27;1.30;;;;;;;;;;5066383;28;20048;-75
2022/05/05 14:40:58;;;;;;;5.28;1.00;;;;;;;;;;5065845;28;20052;-75
2022/05/05 14:43:28;;;;;;;6.73;0.90;;;;;;;;;;5066557;28;20059;-77
2022/05/05 14:45:57;;;;;;;6.32;1.25;;;;;;;;;;5066704;28;20294;-74
2022/05/05 14:48:28;;;;;;;4.20;0.80;;;;;;;;;;5066835;28;20496;-75
2022/05/05 14:50:58;;;;;;;5.25;1.15;;;;;;;;;;5066829;28;20435;-75
2022/05/05 14:53:30;;;;;;;4.03;0.80;;;;;;;;;;5067084;28;20415;-76
2022/05/05 14:56:00;;;;;;;8.38;1.30;;;;;;;;;;5066643;28;20033;-76
2022/05/05 14:58:31;;;;;;;5.57;0.70;;;;;;;;;;5066613;28;20423;-75
2022/05/05 15:01:01;;;;;;;5.28;0.70;;;;;;;;;;5066572;28;20045;-77
2022/05/05 15:03:31;;;;;;;3.97;1.00;;;;;;;;;;5066419;28;20427;-79
2022/05/05 15:06:01;;;;;;;6.95;0.98;;;;;;;;;;5066500;28;20059;-75
2022/05/05 15:08:31;;;;;;;4.75;0.82;;;;;;;;;;5066196;28;20044;-73
2022/05/05 15:11:01;;;;;;;6.68;0.90;;;;;;;;;;5066966;28;20045;-76
2022/05/05 15:13:31;;;;;;;6.80;0.95;;;;;;;;;;5066367;28;20040;-74
2022/05/05 15:16:03;;;;;;;2.35;0.70;;;;;;;;;;5066302;28;20395;-77
2022/05/05 15:18:33;;;;;;;7.07;1.20;;;;;;;;;;5066693;28;20535;-75
2022/05/05 15:21:03;;;;;;;8.52;1.27;;;;;;;;;;5065841;28;20052;-75
2022/05/05 15:23:33;;;;;;;3.43;0.80;;;;;;;;;;5066131;28;20052;-74
2022/05/05 15:26:04;;;;;;;5.18;0.77;;;;;;;;;;5065667;28;20058;-73
2022/05/05 15:28:33;;;;;;;1.90;0.70;;;;;;;;;;5066461;28;20522;-76
2022/05/05 15:31:05;;;;;;;4.03;0.83;;;;;;;;;;5065814;28;20044;-74
2022/05/05 15:33:39;;;;;;;4.97;0.90;;;;;;;;;;5065559;28;20048;-74
2022/05/05 15:36:09;;;;;;;1.58;0.60;;;;;;;;;;5066177;28;20404;-74
2022/05/05 15:38:43;;;;;;;4.03;0.70;;;;;;;;;;5066128;28;20115;-75
2022/05/05 15:41:13;;;;;;;3.20;0.80;;;;;;;;;;5065846;28;20045;-74
2022/05/05 15:43:43;;;;;;;5.90;1.10;;;;;;;;;;5066250;28;20059;-75
2022/05/05 15:46:13;;;;;;;8.50;1.30;;;;;;;;;;5066122;28;20391;-74
2022/05/05 15:48:44;;;;;;;3.15;0.75;;;;;;;;;;5065795;28;20044;-74
2022/05/05 15:51:14;;;;;;;5.65;0.60;;;;;;;;;;5068121;28;20052;-74
2022/05/05 15:53:44;;;;;;;5.20;0.73;;;;;;;;;;5069956;28;20048;-74
2022/05/05 15:56:14;;;;;;;8.23;0.75;;;;;;;;;;5070163;28;20055;-75
2022/05/05 15:58:44;;;;;;;3.17;0.70;;;;;;;;;;5069701;28;20052;-74